This is the latest recevied weather packets stored in our database for station/object W0BJ-1. If no packets are shown the sender has not sent any weather packets the latest 10 day(s).
| Time | Temp. | Humidity | Pressure | Rain* | Wind** | Luminosity | Snow |
|---|---|---|---|---|---|---|---|
| 1777765558 | 13.89° C | 47% | 1018.9 hPa | 0 mm | - | 151 W/m² | - |
| 1777764940 | 14.44° C | 44% | 1018.9 hPa | 0 mm | - | 51 W/m² | - |
| 1777764041 | 15° C | 43% | 1019 hPa | 0 mm | - | 65 W/m² | - |
| 1777762239 | 15° C | 45% | 1019.1 hPa | 0 mm | - | 357 W/m² | - |
| 1777761639 | 15° C | 45% | 1019.1 hPa | 0 mm | - | 429 W/m² | - |
| 1777760439 | 14.44° C | 45% | 1019.1 hPa | 0 mm | - | 464 W/m² | - |
| 1777759540 | 15.56° C | 41% | 1019.1 hPa | 0 mm | - | 207 W/m² | - |
| 1777759246 | 15.56° C | 40% | 1019.1 hPa | 0 mm | - | 241 W/m² | - |
| 1777755940 | 14.44° C | 45% | 1019.3 hPa | 0 mm | - | 281 W/m² | - |
| 1777755647 | 14.44° C | 44% | 1019.3 hPa | 0 mm | - | 272 W/m² | - |
| 1777755342 | 14.44° C | 46% | 1019.3 hPa | 0 mm | - | 861 W/m² | - |
| 1777750541 | 13.89° C | 44% | 1020 hPa | 0 mm | - | 997 W/m² | - |
| 1777750249 | 13.89° C | 44% | 1020 hPa | 0 mm | - | 262 W/m² | - |
| 1777749941 | 13.89° C | 43% | 1020.2 hPa | 0 mm | - | 292 W/m² | - |
| 1777749041 | 13.89° C | 41% | 1020.1 hPa | 0 mm | - | 431 W/m² | - |
| 1777745767 | 13.89° C | 46% | 1020.3 hPa | 0 mm | - | 1164 W/m² | - |
| 1777742736 | 13.89° C | 49% | 1020.5 hPa | 0 mm | - | 1030 W/m² | - |
| 1777741537 | 14.44° C | 42% | 1020.6 hPa | 0 mm | - | 350 W/m² | - |
| 1777741250 | 14.44° C | 54% | 1020.6 hPa | 0 mm | - | 1208 W/m² | - |
| 1777740039 | 13.33° C | 51% | 1020.8 hPa | 0 mm | - | 258 W/m² | - |
| 1777739136 | 13.33° C | 52% | 1020.8 hPa | 0 mm | - | 1058 W/m² | - |
| 1777738839 | 13.33° C | 54% | 1020.8 hPa | 0 mm | - | 1039 W/m² | - |
| 1777735540 | 12.78° C | 58% | 1020.7 hPa | 0 mm | - | 192 W/m² | - |
| 1777734965 | 12.22° C | 63% | 1020.7 hPa | 0 mm | - | 782 W/m² | - |
| 1777734052 | 13.33° C | 60% | 1020.7 hPa | 0 mm | - | 747 W/m² | - |
* Rain latest hour (hover to see other rain measurements)
** Current wind speed in m/s (hover to see current wind gust speed)